Time;durP1;ratioP1;P1;durP2;ratioP2;P2;SDS_P1;SDS_P2;PMS_P1;PMS_P2;Temp;Humidity;BMP_temperature;BMP_pressure;BME280_temperature;BME280_humidity;BME280_pressure;Samples;Min_cycle;Max_cycle;Signal;HPM_P1;HPM_P2
2022/10/03 00:02:10;;;;;;;4.32;0.98;;;8.80;99.90;;;;;;5075159;28;20044;-80
2022/10/03 00:04:59;;;;;;;2.28;0.70;;;8.80;99.90;;;;;;5075638;28;20131;-80
2022/10/03 00:07:39;;;;;;;2.70;0.68;;;8.80;99.90;;;;;;5039875;28;20040;-80
2022/10/03 00:10:36;;;;;;;1.50;0.60;;;9.30;99.90;;;;;;5055474;28;20041;-80
2022/10/03 00:13:17;;;;;;;2.33;0.63;;;8.70;99.90;;;;;;5064599;28;20056;-80
2022/10/03 00:15:48;;;;;;;2.60;0.75;;;8.70;99.90;;;;;;5074663;28;20079;-81
2022/10/03 00:18:38;;;;;;;1.58;0.85;;;8.70;99.90;;;;;;5075543;28;20101;-80
2022/10/03 00:21:36;;;;;;;1.65;0.88;;;8.70;99.90;;;;;;5075246;28;20433;-79
2022/10/03 00:24:30;;;;;;;3.42;0.80;;;8.70;99.90;;;;;;5056165;28;20115;-79
2022/10/03 00:27:40;;;;;;;1.27;0.65;;;8.70;99.90;;;;;;5071816;28;20068;-79
2022/10/03 00:30:12;;;;;;;2.10;0.85;;;8.70;99.90;;;;;;5058453;28;20080;-79
2022/10/03 00:32:51;;;;;;;1.17;0.55;;;8.70;99.90;;;;;;5074799;28;20049;-80
2022/10/03 00:35:43;;;;;;;0.75;0.52;;;8.70;99.90;;;;;;5074704;28;20441;-80
2022/10/03 00:38:54;;;;;;;1.20;0.68;;;8.70;99.90;;;;;;5052913;28;20041;-80
2022/10/03 00:41:51;;;;;;;3.92;0.77;;;8.70;99.90;;;;;;5053847;28;20052;-80
2022/10/03 00:44:36;;;;;;;3.33;0.52;;;8.70;99.90;;;;;;5060340;28;20047;-80
2022/10/03 00:47:37;;;;;;;1.02;0.60;;;8.70;99.90;;;;;;5048936;28;20055;-80
2022/10/03 00:50:17;;;;;;;0.85;0.43;;;8.80;99.90;;;;;;5073444;28;20045;-80
2022/10/03 00:53:04;;;;;;;2.70;0.98;;;8.90;99.90;;;;;;5074417;28;20040;-80
2022/10/03 00:55:48;;;;;;;1.52;0.65;;;9.00;99.90;;;;;;5074036;28;20048;-80
2022/10/03 00:58:26;;;;;;;0.85;0.52;;;9.10;99.90;;;;;;5055919;28;20076;-80
2022/10/03 01:00:58;;;;;;;3.88;0.70;;;9.20;99.90;;;;;;5074197;28;20041;-80
2022/10/03 01:03:27;;;;;;;1.65;0.65;;;9.30;99.90;;;;;;5074747;28;20045;-80
2022/10/03 01:06:03;;;;;;;1.90;0.55;;;9.40;99.90;;;;;;5074231;28;20045;-80
2022/10/03 01:08:47;;;;;;;4.63;1.17;;;9.40;99.90;;;;;;5056369;28;20052;-80
2022/10/03 01:11:31;;;;;;;1.30;0.45;;;9.50;99.90;;;;;;5054808;28;20051;-80
2022/10/03 01:14:08;;;;;;;0.85;0.40;;;9.60;99.90;;;;;;5074048;28;20084;-80
2022/10/03 01:17:04;;;;;;;2.15;0.63;;;9.60;99.90;;;;;;5074115;28;20398;-80
2022/10/03 01:19:57;;;;;;;2.10;0.32;;;9.60;99.90;;;;;;5073484;28;20120;-80
2022/10/03 01:22:58;;;;;;;1.27;0.50;;;9.50;99.90;;;;;;5069261;28;20040;-80
2022/10/03 01:25:46;;;;;;;1.60;0.65;;;9.50;99.90;;;;;;5057142;28;20036;-80
2022/10/03 01:32:01;;;;;;;2.33;0.40;;;9.30;99.90;;;;;;5015813;28;20045;-80
2022/10/03 01:34:59;;;;;;;1.35;0.70;;;9.30;99.90;;;;;;5073603;28;20091;-80
2022/10/03 01:37:42;;;;;;;3.42;0.70;;;9.30;99.90;;;;;;5066163;28;20363;-79
2022/10/03 01:40:43;;;;;;;2.80;1.17;;;9.20;99.90;;;;;;5073688;28;20036;-79
2022/10/03 01:43:20;;;;;;;2.58;0.60;;;9.20;99.90;;;;;;5063277;28;20087;-79
2022/10/03 01:46:04;;;;;;;2.38;0.73;;;9.20;99.90;;;;;;5056892;28;20483;-79
2022/10/03 01:48:47;;;;;;;2.20;0.60;;;9.20;99.90;;;;;;5072553;28;20052;-79
2022/10/03 01:51:20;;;;;;;2.45;0.65;;;9.20;99.90;;;;;;5062798;28;20052;-79
2022/10/03 01:53:55;;;;;;;1.65;0.68;;;9.20;99.90;;;;;;5073336;28;20044;-80
2022/10/03 01:56:34;;;;;;;1.38;0.60;;;9.20;99.90;;;;;;5073348;28;20090;-80
2022/10/03 01:59:11;;;;;;;1.42;0.65;;;9.10;99.90;;;;;;5071376;28;20056;-79
2022/10/03 02:01:39;;;;;;;0.50;0.40;;;9.10;99.90;;;;;;5073554;28;20071;-81
2022/10/03 02:04:10;;;;;;;1.13;0.50;;;9.20;99.90;;;;;;5073257;28;20079;-80
2022/10/03 02:07:04;;;;;;;2.28;0.63;;;8.90;99.90;;;;;;5053475;28;20387;-80
2022/10/03 02:09:33;;;;;;;1.80;0.40;;;8.90;99.90;;;;;;5054036;28;20394;-80
2022/10/03 02:12:30;;;;;;;1.65;0.47;;;8.80;99.90;;;;;;5072887;28;20132;-80
2022/10/03 02:15:07;;;;;;;1.30;0.43;;;8.70;99.90;;;;;;5073210;28;20458;-80
2022/10/03 02:17:58;;;;;;;0.82;0.32;;;8.70;99.90;;;;;;5056280;28;20290;-79
2022/10/03 02:20:35;;;;;;;1.92;0.75;;;8.60;99.90;;;;;;5072038;28;20102;-78
2022/10/03 02:23:00;;;;;;;0.38;0.22;;;8.40;99.90;;;;;;5072584;28;20029;-78
2022/10/03 02:25:50;;;;;;;2.03;0.63;;;8.40;99.90;;;;;;5072818;28;20094;-78
2022/10/03 02:28:54;;;;;;;1.73;0.47;;;8.40;99.90;;;;;;5056123;28;20052;-78
2022/10/03 02:31:46;;;;;;;4.47;1.08;;;8.40;99.90;;;;;;5007198;28;20079;-78
2022/10/03 02:34:42;;;;;;;1.00;0.47;;;8.30;99.90;;;;;;5052902;28;20178;-80
2022/10/03 02:37:35;;;;;;;0.65;0.60;;;8.30;99.90;;;;;;5036309;28;20502;-80
2022/10/03 02:40:07;;;;;;;1.10;0.50;;;8.30;99.90;;;;;;5061703;28;20044;-80
2022/10/03 02:42:39;;;;;;;0.30;0.30;;;8.30;99.90;;;;;;5072294;28;20120;-80
2022/10/03 02:45:07;;;;;;;1.08;0.30;;;8.30;99.90;;;;;;5072586;28;20043;-80
2022/10/03 02:47:52;;;;;;;2.55;0.60;;;8.30;99.90;;;;;;5072359;28;20436;-80
2022/10/03 02:50:33;;;;;;;1.13;0.60;;;8.20;99.90;;;;;;5059446;28;20127;-80
2022/10/03 02:53:10;;;;;;;2.58;0.70;;;8.50;99.90;;;;;;5072332;28;20036;-80
2022/10/03 02:56:10;;;;;;;1.40;0.32;;;8.10;99.90;;;;;;5050588;28;20123;-80
2022/10/03 02:59:01;;;;;;;2.40;0.47;;;8.10;99.90;;;;;;5072293;28;20051;-80
2022/10/03 03:01:50;;;;;;;1.40;0.57;;;8.10;99.90;;;;;;5071610;28;20063;-80
2022/10/03 03:04:55;;;;;;;2.35;0.38;;;8.00;99.90;;;;;;5064344;28;20113;-80
2022/10/03 03:07:58;;;;;;;1.35;0.60;;;8.00;99.90;;;;;;5072213;28;20090;-78
2022/10/03 03:10:52;;;;;;;2.28;1.10;;;8.00;99.90;;;;;;5071897;28;20044;-78
2022/10/03 03:13:57;;;;;;;1.17;0.55;;;7.90;99.90;;;;;;5071663;28;20065;-78
2022/10/03 03:16:40;;;;;;;2.85;0.68;;;7.90;99.90;;;;;;5055410;28;20056;-78
2022/10/03 03:19:21;;;;;;;0.70;0.45;;;7.80;99.90;;;;;;5055591;28;20102;-78
2022/10/03 03:22:31;;;;;;;2.97;0.65;;;7.80;99.90;;;;;;5054782;28;20036;-79
2022/10/03 03:25:18;;;;;;;0.68;0.52;;;7.80;99.90;;;;;;5042839;28;20045;-80
2022/10/03 03:27:53;;;;;;;1.42;0.52;;;7.80;99.90;;;;;;5071976;28;20067;-80
2022/10/03 03:30:26;;;;;;;1.00;0.47;;;7.80;99.90;;;;;;5072379;28;20390;-80
2022/10/03 03:33:30;;;;;;;1.85;0.50;;;7.80;99.90;;;;;;5071609;28;20051;-80
2022/10/03 03:36:26;;;;;;;1.80;0.65;;;7.70;99.90;;;;;;5054636;28;20087;-80
2022/10/03 03:39:09;;;;;;;1.77;0.35;;;7.80;99.90;;;;;;5071903;28;20036;-80
2022/10/03 03:41:58;;;;;;;4.30;0.68;;;7.80;99.90;;;;;;5071872;28;20047;-80
2022/10/03 03:44:46;;;;;;;0.30;0.30;;;7.80;99.90;;;;;;5067835;28;20494;-80
2022/10/03 03:47:24;;;;;;;0.28;0.28;;;7.80;99.90;;;;;;5055521;28;20051;-80
2022/10/03 03:50:27;;;;;;;1.60;0.90;;;7.80;99.90;;;;;;5059907;28;20053;-80
2022/10/03 03:52:56;;;;;;;2.53;0.50;;;7.80;99.90;;;;;;5037993;28;20131;-80
2022/10/03 03:55:47;;;;;;;0.30;0.30;;;7.90;99.90;;;;;;5071262;28;20136;-80
2022/10/03 03:58:42;;;;;;;1.40;0.50;;;8.00;99.90;;;;;;5071603;28;20048;-80
2022/10/03 04:01:45;;;;;;;2.00;0.93;;;7.80;99.90;;;;;;5071630;28;20044;-80
2022/10/03 04:04:16;;;;;;;3.65;0.90;;;7.90;99.90;;;;;;5071248;28;20062;-80
2022/10/03 04:06:45;;;;;;;1.45;0.30;;;7.90;99.90;;;;;;5071273;28;20495;-81
2022/10/03 04:09:29;;;;;;;2.78;0.85;;;7.80;99.90;;;;;;5072213;28;20044;-80
2022/10/03 04:12:11;;;;;;;5.07;1.02;;;7.80;99.90;;;;;;5054484;28;20509;-80
2022/10/03 04:14:59;;;;;;;1.85;0.52;;;8.00;99.90;;;;;;5036397;28;20048;-80
2022/10/03 04:20:49;;;;;;;0.93;0.57;;;7.80;99.90;;;;;;5071843;28;20048;-80
2022/10/03 04:23:29;;;;;;;1.00;0.40;;;7.70;99.90;;;;;;5075277;28;20483;-81
2022/10/03 04:26:36;;;;;;;3.55;0.65;;;7.70;99.90;;;;;;5074343;28;20127;-80
2022/10/03 04:29:17;;;;;;;2.28;0.93;;;7.70;99.90;;;;;;5064300;28;20368;-80
2022/10/03 04:31:51;;;;;;;1.15;0.55;;;7.60;99.90;;;;;;5058390;28;20043;-80
2022/10/03 04:34:31;;;;;;;1.13;0.70;;;7.60;99.90;;;;;;5075224;28;20489;-80
2022/10/03 04:37:00;;;;;;;2.10;0.70;;;7.60;99.90;;;;;;5057242;28;20041;-80
2022/10/03 04:39:43;;;;;;;0.85;0.57;;;7.60;99.90;;;;;;5057323;28;20056;-80
2022/10/03 04:42:27;;;;;;;2.83;1.00;;;7.50;99.90;;;;;;5075110;28;20447;-80
2022/10/03 04:45:11;;;;;;;0.93;0.50;;;7.40;99.90;;;;;;5074714;28;20161;-80
2022/10/03 04:47:52;;;;;;;0.75;0.70;;;7.40;99.90;;;;;;5073114;28;20041;-80
2022/10/03 04:50:29;;;;;;;2.35;0.60;;;7.40;99.90;;;;;;5062594;28;20085;-80
2022/10/03 04:53:39;;;;;;;0.50;0.40;;;7.40;99.90;;;;;;5058321;28;20204;-80
2022/10/03 04:56:38;;;;;;;2.25;0.60;;;7.40;99.90;;;;;;5074243;28;20033;-80
2022/10/03 04:59:28;;;;;;;1.30;0.60;;;7.40;99.90;;;;;;5074660;28;20044;-80
2022/10/03 05:02:02;;;;;;;2.42;0.82;;;7.40;99.90;;;;;;5074071;28;20044;-81
2022/10/03 05:04:36;;;;;;;1.08;0.52;;;7.30;99.90;;;;;;5071514;28;20041;-80
2022/10/03 05:07:20;;;;;;;6.10;1.55;;;7.40;99.90;;;;;;5054820;28;20036;-80
2022/10/03 05:09:57;;;;;;;0.85;0.50;;;7.30;99.90;;;;;;5057239;28;20044;-80
2022/10/03 05:12:46;;;;;;;0.85;0.60;;;7.30;99.90;;;;;;5074193;28;20130;-80
2022/10/03 05:15:26;;;;;;;1.63;0.65;;;7.30;99.90;;;;;;5073995;28;20493;-80
2022/10/03 05:18:18;;;;;;;1.30;0.50;;;7.20;99.90;;;;;;5068777;28;20045;-80
2022/10/03 05:21:04;;;;;;;1.52;0.57;;;7.20;99.90;;;;;;5074226;28;20504;-80
2022/10/03 05:23:44;;;;;;;1.17;0.60;;;7.20;99.90;;;;;;5074034;28;20119;-80
2022/10/03 05:26:27;;;;;;;2.78;0.40;;;7.20;99.90;;;;;;5068466;28;20085;-80
2022/10/03 05:29:30;;;;;;;1.15;0.65;;;7.10;99.90;;;;;;5057384;28;20075;-80
2022/10/03 05:32:11;;;;;;;2.92;1.15;;;7.10;99.90;;;;;;5073562;28;20040;-80
2022/10/03 05:35:01;;;;;;;0.85;0.52;;;7.20;99.90;;;;;;5073621;28;20068;-80
2022/10/03 05:37:30;;;;;;;0.70;0.60;;;7.20;99.90;;;;;;5072534;28;20056;-80
2022/10/03 05:40:06;;;;;;;1.75;0.70;;;7.50;99.90;;;;;;5057128;28;20052;-80
2022/10/03 05:43:10;;;;;;;;;;;7.10;99.90;;;;;;5074185;28;20044;-80
2022/10/03 05:45:53;;;;;;;1.17;0.55;;;7.10;99.90;;;;;;5035544;28;20410;-80
2022/10/03 05:48:32;;;;;;;1.38;0.60;;;7.10;99.90;;;;;;5070820;28;20074;-80
2022/10/03 05:51:32;;;;;;;0.40;0.40;;;7.10;99.90;;;;;;5073306;28;20093;-80
2022/10/03 05:54:19;;;;;;;2.70;0.40;;;7.20;99.90;;;;;;5073910;28;20037;-80
2022/10/03 05:56:57;;;;;;;1.30;0.75;;;7.20;99.90;;;;;;5072165;28;20040;-80
2022/10/03 05:59:23;;;;;;;2.60;0.88;;;7.20;99.90;;;;;;5070709;28;20040;-80
2022/10/03 06:02:14;;;;;;;0.93;0.50;;;7.30;99.90;;;;;;5074383;28;20139;-80
2022/10/03 06:05:11;;;;;;;3.25;0.88;;;7.40;99.90;;;;;;5075546;28;20036;-81
2022/10/03 06:08:24;;;;;;;0.68;0.52;;;7.40;99.90;;;;;;5074117;28;20039;-80
2022/10/03 06:11:10;;;;;;;4.25;1.02;;;7.50;99.90;;;;;;5074291;28;20040;-78
2022/10/03 06:14:04;;;;;;;3.90;1.17;;;7.60;99.90;;;;;;5074148;28;20063;-79
2022/10/03 06:17:08;;;;;;;2.63;1.05;;;7.70;99.90;;;;;;5072503;28;20028;-78
2022/10/03 06:19:54;;;;;;;2.85;0.80;;;7.80;99.90;;;;;;5056272;28;20055;-78
2022/10/03 06:22:49;;;;;;;1.17;0.77;;;7.80;99.90;;;;;;5072230;28;20040;-78
2022/10/03 06:25:36;;;;;;;3.78;1.15;;;8.70;99.90;;;;;;5072535;28;20466;-78
2022/10/03 06:28:20;;;;;;;4.18;1.02;;;9.00;99.90;;;;;;5073440;22;20490;-80
2022/10/03 06:31:10;;;;;;;5.07;2.80;;;9.10;99.90;;;;;;5058453;28;20041;-80
2022/10/03 06:34:01;;;;;;;2.92;1.15;;;9.10;99.90;;;;;;5069416;28;20040;-80
2022/10/03 06:36:39;;;;;;;2.60;1.15;;;9.20;99.90;;;;;;5068258;28;20078;-80
2022/10/03 06:39:43;;;;;;;3.47;1.35;;;9.20;99.90;;;;;;5064140;28;20779;-80
2022/10/03 06:42:30;;;;;;;3.30;1.13;;;9.30;99.90;;;;;;5077857;28;20124;-80
2022/10/03 06:45:08;;;;;;;;;;;9.40;99.90;;;;;;5091035;28;20033;-80
2022/10/03 06:47:40;;;;;;;4.80;1.10;;;9.50;99.90;;;;;;5072365;28;19916;-80
2022/10/03 06:50:53;;;;;;;4.40;1.45;;;9.80;99.90;;;;;;5057534;28;20049;-79
2022/10/03 06:53:42;;;;;;;4.03;1.23;;;11.10;99.90;;;;;;5029333;28;20445;-80
2022/10/03 06:56:30;;;;;;;2.03;1.35;;;12.70;99.90;;;;;;5071620;28;20127;-80
2022/10/03 06:59:12;;;;;;;7.15;1.13;;;14.30;99.90;;;;;;5053700;28;20041;-80
2022/10/03 07:02:05;;;;;;;5.97;2.03;;;15.80;99.90;;;;;;5043610;28;20040;-80
2022/10/03 07:05:05;;;;;;;3.63;0.98;;;17.30;99.90;;;;;;5054905;28;20125;-80
2022/10/03 07:08:01;;;;;;;3.20;1.23;;;18.50;99.90;;;;;;5070680;28;20492;-80
2022/10/03 07:10:48;;;;;;;3.03;1.33;;;19.50;99.90;;;;;;5071911;28;20036;-80
2022/10/03 07:13:51;;;;;;;4.03;1.20;;;20.60;99.90;;;;;;5072192;28;20045;-80
2022/10/03 07:16:54;;;;;;;1.90;1.05;;;21.70;99.90;;;;;;5068162;28;20040;-79
2022/10/03 07:19:45;;;;;;;3.63;0.90;;;22.60;99.90;;;;;;5057971;28;20197;-79
2022/10/03 07:22:30;;;;;;;4.68;1.40;;;23.30;99.90;;;;;;5055651;28;20536;-79
2022/10/03 07:25:26;;;;;;;7.07;1.65;;;23.80;98.00;;;;;;5055353;28;20041;-79
2022/10/03 07:28:21;;;;;;;5.63;1.65;;;24.30;96.90;;;;;;5070573;28;20483;-79
2022/10/03 07:31:07;;;;;;;9.02;1.30;;;25.20;95.20;;;;;;5058082;28;20044;-79
2022/10/03 07:33:44;;;;;;;3.63;1.05;;;25.40;94.40;;;;;;5055491;28;20036;-81
2022/10/03 07:39:42;;;;;;;1.75;0.82;;;26.20;92.60;;;;;;5071679;28;20394;-80
2022/10/03 07:42:26;;;;;;;4.65;1.10;;;26.10;91.80;;;;;;5060710;28;20041;-80
2022/10/03 07:45:23;;;;;;;4.00;1.08;;;26.30;91.80;;;;;;5067683;28;20079;-80
2022/10/03 07:48:12;;;;;;;5.03;1.00;;;26.40;91.20;;;;;;5071522;28;20044;-80
2022/10/03 07:51:23;;;;;;;3.90;1.30;;;26.70;90.80;;;;;;5061632;28;20490;-81
2022/10/03 07:54:42;;;;;;;4.35;1.35;;;27.50;90.40;;;;;;5055580;28;20068;-81
2022/10/03 07:57:36;;;;;;;1.75;0.75;;;27.50;89.90;;;;;;5019615;28;20037;-81
2022/10/03 08:00:25;;;;;;;2.20;0.65;;;27.90;88.40;;;;;;5075399;28;20048;-81
2022/10/03 08:03:28;;;;;;;3.20;1.00;;;28.00;87.80;;;;;;5074850;28;20078;-81
2022/10/03 08:06:13;;;;;;;3.30;1.10;;;28.20;86.10;;;;;;5075196;28;20063;-81
2022/10/03 08:08:52;;;;;;;3.28;1.00;;;28.00;85.20;;;;;;5059483;28;20063;-81
2022/10/03 08:11:45;;;;;;;4.25;1.45;;;27.50;85.80;;;;;;5075622;28;20071;-81
2022/10/03 08:14:11;;;;;;;4.97;1.25;;;27.30;84.50;;;;;;5059297;28;20123;-81
2022/10/03 08:16:39;;;;;;;4.90;1.20;;;27.00;85.40;;;;;;5075228;28;20115;-83
2022/10/03 08:19:29;;;;;;;2.22;0.93;;;26.80;85.10;;;;;;5056945;28;20064;-81
2022/10/03 08:22:10;;;;;;;2.55;0.60;;;26.50;87.80;;;;;;5068172;28;20033;-81
2022/10/03 08:25:13;;;;;;;1.95;0.88;;;26.30;86.20;;;;;;5074191;28;20036;-82
2022/10/03 08:27:46;;;;;;;2.65;1.02;;;;;;;;;;5071785;28;20056;-81
2022/10/03 08:30:22;;;;;;;3.72;1.05;;;28.40;86.30;;;;;;5057251;28;20102;-81
2022/10/03 08:32:59;;;;;;;2.33;0.80;;;28.40;85.20;;;;;;5073929;28;20033;-82
2022/10/03 08:36:06;;;;;;;3.55;0.95;;;28.70;83.50;;;;;;5057396;28;20143;-80
2022/10/03 08:38:50;;;;;;;;;;;28.90;85.30;;;;;;5057007;28;20135;-82
2022/10/03 08:41:35;;;;;;;1.80;0.73;;;29.30;84.20;;;;;;5063858;28;19916;-82
2022/10/03 08:44:19;;;;;;;3.78;0.77;;;29.50;82.10;;;;;;5086770;28;20047;-82
2022/10/03 08:47:24;;;;;;;1.98;0.88;;;29.40;81.50;;;;;;5091892;28;20044;-82
2022/10/03 08:50:24;;;;;;;1.75;0.82;;;28.80;81.30;;;;;;5086169;28;20036;-81
2022/10/03 08:53:09;;;;;;;3.20;1.55;;;28.60;83.20;;;;;;5066855;28;20499;-81
2022/10/03 08:55:51;;;;;;;5.18;1.65;;;28.60;82.40;;;;;;5063261;28;20033;-81
2022/10/03 08:58:38;;;;;;;3.25;1.23;;;28.40;82.40;;;;;;5063234;28;20057;-80
2022/10/03 09:01:25;;;;;;;3.13;1.00;;;28.30;84.00;;;;;;5058086;28;20117;-80
2022/10/03 09:03:54;;;;;;;1.67;0.90;;;28.40;83.30;;;;;;5061886;28;20032;-82
2022/10/03 09:06:57;;;;;;;2.60;1.02;;;28.60;80.90;;;;;;5065682;28;20043;-81
2022/10/03 09:10:00;;;;;;;2.33;0.75;;;28.40;82.50;;;;;;5062251;28;20072;-80
2022/10/03 09:12:44;;;;;;;1.17;0.63;;;28.50;80.50;;;;;;5074257;28;20079;-81
2022/10/03 09:15:28;;;;;;;3.10;1.00;;;28.30;83.00;;;;;;5074510;28;20497;-81
2022/10/03 09:18:06;;;;;;;2.33;0.70;;;;;;;;;;5054854;28;20080;-82
2022/10/03 09:20:41;;;;;;;3.88;1.08;;;;;;;;;;5054500;28;20086;-81
2022/10/03 09:23:23;;;;;;;1.92;0.80;;;;;;;;;;5054669;28;20535;-81
2022/10/03 09:26:26;;;;;;;2.35;0.80;;;28.70;78.30;;;;;;5054689;28;20435;-82
2022/10/03 09:29:21;;;;;;;2.95;1.38;;;28.70;81.00;;;;;;5066900;28;20135;-81
2022/10/03 09:32:25;;;;;;;2.05;0.85;;;29.30;80.10;;;;;;5054017;28;20079;-82
2022/10/03 09:35:05;;;;;;;7.45;1.55;;;29.20;80.40;;;;;;5064784;28;20041;-82
2022/10/03 09:37:37;;;;;;;2.33;0.40;;;28.60;79.40;;;;;;5052025;28;20053;-82
2022/10/03 09:40:25;;;;;;;3.80;1.17;;;28.70;78.20;;;;;;5054258;28;20391;-82
2022/10/03 09:43:21;;;;;;;2.10;0.55;;;28.80;78.60;;;;;;5045901;28;20378;-81
2022/10/03 09:46:00;;;;;;;2.60;1.33;;;28.40;77.40;;;;;;5070874;28;20033;-81
2022/10/03 09:48:26;;;;;;;1.58;0.43;;;28.00;78.40;;;;;;5053914;28;20037;-81
2022/10/03 09:51:16;;;;;;;2.53;0.80;;;28.00;79.90;;;;;;5064722;28;20481;-82
2022/10/03 09:54:01;;;;;;;4.00;0.90;;;28.30;78.70;;;;;;5073486;28;20040;-81
2022/10/03 09:56:50;;;;;;;1.42;0.80;;;27.90;79.60;;;;;;5073000;28;20045;-81
2022/10/03 09:59:48;;;;;;;0.75;0.40;;;27.80;80.00;;;;;;5073925;28;20181;-81
2022/10/03 10:02:41;;;;;;;6.10;1.20;;;27.40;76.00;;;;;;5073790;28;20053;-81
2022/10/03 10:05:25;;;;;;;1.23;0.70;;;27.30;78.70;;;;;;5074185;28;20366;-81
2022/10/03 10:08:03;;;;;;;4.03;1.23;;;27.30;77.70;;;;;;5070293;28;20040;-81
2022/10/03 10:10:43;;;;;;;3.83;0.65;;;27.30;80.50;;;;;;5072159;28;20037;-81
2022/10/03 10:13:37;;;;;;;2.90;0.80;;;27.50;80.60;;;;;;5046719;28;20032;-81
2022/10/03 10:16:35;;;;;;;1.70;0.40;;;27.20;80.60;;;;;;5056077;28;20043;-79
2022/10/03 10:19:36;;;;;;;0.73;0.45;;;27.20;81.60;;;;;;5053897;28;20053;-79
2022/10/03 10:22:40;;;;;;;3.72;0.70;;;27.30;79.90;;;;;;5071548;28;20391;-81
2022/10/03 10:25:33;;;;;;;1.77;0.55;;;27.40;80.90;;;;;;5073021;28;20045;-81
2022/10/03 10:28:08;;;;;;;2.78;0.80;;;27.00;80.70;;;;;;5087798;28;20048;-81
2022/10/03 10:31:01;;;;;;;1.20;0.73;;;26.70;82.50;;;;;;5070190;28;20131;-81
2022/10/03 10:34:04;;;;;;;1.23;0.47;;;26.70;80.00;;;;;;5068256;28;20037;-81
2022/10/03 10:36:48;;;;;;;1.35;0.70;;;26.80;81.30;;;;;;5072474;28;20043;-82
2022/10/03 10:39:32;;;;;;;2.47;1.02;;;26.70;80.50;;;;;;5055669;28;20421;-81
2022/10/03 10:42:04;;;;;;;1.55;0.40;;;26.10;81.00;;;;;;5073051;28;20041;-81
2022/10/03 10:45:17;;;;;;;3.22;1.08;;;25.80;83.40;;;;;;5073158;28;20044;-81
2022/10/03 10:47:51;;;;;;;1.65;0.43;;;25.60;82.10;;;;;;5072617;28;20072;-81
2022/10/03 10:50:35;;;;;;;1.73;0.88;;;25.30;83.80;;;;;;5068294;28;20036;-81
2022/10/03 10:53:39;;;;;;;3.55;0.77;;;24.80;83.40;;;;;;5068343;28;20119;-81
2022/10/03 10:56:10;;;;;;;3.50;1.38;;;24.10;85.50;;;;;;5078356;28;20055;-82
2022/10/03 10:59:13;;;;;;;1.55;0.50;;;23.50;86.90;;;;;;5067200;28;20047;-81
2022/10/03 11:02:06;;;;;;;1.95;0.35;;;23.30;88.60;;;;;;5057667;28;20090;-81
2022/10/03 11:04:54;;;;;;;1.15;0.55;;;23.90;89.90;;;;;;5075554;28;20486;-81
2022/10/03 11:07:26;;;;;;;2.78;1.27;;;24.30;87.00;;;;;;5060024;28;20036;-81
2022/10/03 11:10:27;;;;;;;3.67;0.77;;;24.40;86.40;;;;;;5045127;28;20124;-81
2022/10/03 11:13:20;;;;;;;1.63;0.63;;;24.40;85.10;;;;;;5064355;28;20064;-81
2022/10/03 11:16:39;;;;;;;1.85;0.63;;;24.40;83.90;;;;;;5064833;28;20040;-81
2022/10/03 11:19:26;;;;;;;0.90;0.28;;;23.80;85.20;;;;;;5036567;28;20037;-81
2022/10/03 11:22:04;;;;;;;1.88;0.65;;;23.30;87.40;;;;;;5048314;28;20060;-81
2022/10/03 11:24:32;;;;;;;2.45;0.50;;;23.30;89.80;;;;;;5057470;28;20048;-82
2022/10/03 11:27:10;;;;;;;2.00;0.75;;;23.40;87.90;;;;;;5081269;28;20052;-80
2022/10/03 11:30:18;;;;;;;1.65;0.90;;;23.30;88.30;;;;;;5067423;28;20078;-80
2022/10/03 11:33:35;;;;;;;2.15;0.70;;;23.20;88.70;;;;;;5050342;28;20048;-80
2022/10/03 11:36:42;;;;;;;6.72;1.05;;;23.10;90.10;;;;;;5056742;28;20098;-80
2022/10/03 11:39:32;;;;;;;2.45;1.05;;;23.30;89.70;;;;;;5088151;28;20036;-80
2022/10/03 11:42:21;;;;;;;1.67;0.50;;;23.70;90.10;;;;;;5067922;28;20120;-80
2022/10/03 11:44:50;;;;;;;1.95;0.60;;;23.80;88.30;;;;;;5055768;28;20047;-81
2022/10/03 11:47:26;;;;;;;3.85;1.00;;;23.90;88.70;;;;;;5077136;28;20040;-81
2022/10/03 11:50:29;;;;;;;2.53;0.93;;;23.60;88.80;;;;;;5067902;28;20044;-81
2022/10/03 11:52:55;;;;;;;4.07;1.30;;;23.30;88.10;;;;;;5085955;28;20156;-81
2022/10/03 11:55:33;;;;;;;6.95;1.52;;;22.80;90.00;;;;;;5060180;28;20053;-82
2022/10/03 11:58:38;;;;;;;2.60;0.90;;;22.50;90.40;;;;;;5068425;28;20399;-81
2022/10/03 12:01:26;;;;;;;1.00;0.40;;;22.30;90.70;;;;;;5054537;28;20123;-80
2022/10/03 12:04:09;;;;;;;2.38;0.60;;;22.00;91.20;;;;;;5090799;28;20554;-79
2022/10/03 12:09:38;;;;;;;1.95;0.60;;;21.30;92.50;;;;;;5065471;28;20419;-79
2022/10/03 12:12:35;;;;;;;1.27;0.50;;;21.10;92.30;;;;;;5076902;28;20121;-79
2022/10/03 12:15:29;;;;;;;1.75;0.47;;;21.20;92.90;;;;;;5073899;28;20033;-79
2022/10/03 12:18:37;;;;;;;4.05;1.15;;;21.30;93.10;;;;;;5055387;28;20044;-80
2022/10/03 12:21:13;;;;;;;2.63;1.02;;;21.40;93.70;;;;;;5063634;28;20044;-80
2022/10/03 12:23:44;;;;;;;1.95;0.63;;;21.40;93.80;;;;;;5067748;28;20111;-80
2022/10/03 12:26:22;;;;;;;2.47;0.82;;;21.30;93.00;;;;;;5054880;28;20048;-80
2022/10/03 12:28:54;;;;;;;5.57;0.57;;;21.30;93.00;;;;;;5078269;28;20057;-80
2022/10/03 12:31:29;;;;;;;1.05;0.52;;;21.30;93.60;;;;;;5070437;28;20048;-80
2022/10/03 12:34:02;;;;;;;2.23;0.50;;;21.30;92.40;;;;;;5050587;28;20056;-82
2022/10/03 12:36:50;;;;;;;0.65;0.40;;;21.30;93.10;;;;;;5068295;28;20135;-81
2022/10/03 12:39:18;;;;;;;3.45;0.73;;;21.20;92.60;;;;;;5053901;28;20048;-81
2022/10/03 12:42:25;;;;;;;2.50;0.60;;;21.20;93.30;;;;;;5078303;28;20047;-81
2022/10/03 12:45:22;;;;;;;3.72;0.93;;;21.20;93.70;;;;;;5082135;28;20119;-81
2022/10/03 12:48:25;;;;;;;1.73;0.75;;;21.20;93.80;;;;;;5062686;28;20077;-81
2022/10/03 12:51:17;;;;;;;2.00;0.50;;;21.00;92.80;;;;;;5087477;28;20143;-80
2022/10/03 12:53:55;;;;;;;4.72;0.77;;;20.90;92.90;;;;;;5071942;28;20051;-80
2022/10/03 12:56:41;;;;;;;4.00;1.20;;;20.80;93.00;;;;;;5073272;28;20516;-80
2022/10/03 12:59:15;;;;;;;2.25;0.70;;;20.70;93.50;;;;;;5088065;28;20048;-80
2022/10/03 13:01:50;;;;;;;1.75;1.10;;;20.80;93.90;;;;;;5068544;28;20558;-80
2022/10/03 13:04:34;;;;;;;2.05;0.80;;;20.90;93.70;;;;;;5065229;28;20037;-81
2022/10/03 13:07:14;;;;;;;0.80;0.40;;;20.90;93.30;;;;;;5062294;28;20036;-82
2022/10/03 13:09:39;;;;;;;4.53;0.73;;;20.90;93.60;;;;;;5089605;28;20044;-82
2022/10/03 13:12:23;;;;;;;0.57;0.40;;;20.80;93.40;;;;;;5055959;22;20627;-81
2022/10/03 13:15:15;;;;;;;3.83;1.20;;;20.60;93.00;;;;;;5041131;28;20047;-82
2022/10/03 13:17:55;;;;;;;1.27;0.52;;;20.60;93.50;;;;;;5036370;28;20120;-82
2022/10/03 13:20:39;;;;;;;4.50;1.15;;;20.80;94.70;;;;;;5054037;28;20044;-82
2022/10/03 13:23:32;;;;;;;1.60;0.60;;;21.00;93.30;;;;;;5053515;28;20044;-80
2022/10/03 13:26:07;;;;;;;1.38;0.70;;;20.90;93.50;;;;;;5053696;28;20037;-80
2022/10/03 13:29:12;;;;;;;3.45;0.95;;;21.10;94.10;;;;;;5037185;28;20510;-80
2022/10/03 13:32:06;;;;;;;1.75;0.80;;;21.10;93.90;;;;;;5054779;28;20045;-80
2022/10/03 13:35:57;;;;;;;1.05;0.40;;;21.00;92.80;;;;;;5050406;28;20056;-80
2022/10/03 13:38:23;;;;;;;2.55;0.65;;;20.90;93.20;;;;;;5053872;28;20059;-80
2022/10/03 13:41:04;;;;;;;1.23;0.55;;;20.60;93.10;;;;;;5052308;28;20509;-82
2022/10/03 13:43:35;;;;;;;1.70;0.63;;;20.50;94.00;;;;;;5054713;28;20483;-81
2022/10/03 13:46:14;;;;;;;2.72;0.52;;;21.10;94.60;;;;;;5053423;28;20076;-82
2022/10/03 13:48:45;;;;;;;0.95;0.57;;;20.50;93.90;;;;;;5047975;28;20040;-82
2022/10/03 13:51:23;;;;;;;2.60;0.90;;;20.40;94.10;;;;;;5017437;28;20085;-82
2022/10/03 13:54:06;;;;;;;2.15;0.40;;;20.30;94.20;;;;;;5047644;28;20395;-82
2022/10/03 13:56:51;;;;;;;2.80;0.75;;;20.20;94.60;;;;;;5072913;28;20098;-82
2022/10/03 13:59:46;;;;;;;3.88;0.82;;;20.20;94.40;;;;;;5071650;28;20043;-82
2022/10/03 14:02:35;;;;;;;2.65;1.00;;;20.10;95.00;;;;;;5036392;28;20044;-82
2022/10/03 14:05:42;;;;;;;1.23;0.60;;;20.10;95.40;;;;;;5065933;28;20052;-82
2022/10/03 14:08:38;;;;;;;2.30;0.63;;;20.10;95.40;;;;;;4975858;28;20485;-82
2022/10/03 14:11:25;;;;;;;3.53;1.20;;;20.20;95.30;;;;;;4989519;28;20034;-82
2022/10/03 14:14:22;;;;;;;0.82;0.35;;;20.30;95.50;;;;;;5052425;28;20045;-80
2022/10/03 14:17:16;;;;;;;1.77;0.73;;;20.30;95.10;;;;;;5045124;28;20051;-80
2022/10/03 14:20:11;;;;;;;1.15;0.60;;;20.20;95.00;;;;;;5052057;28;20067;-80
2022/10/03 14:22:56;;;;;;;1.95;0.22;;;20.00;94.70;;;;;;5052560;28;20052;-80
2022/10/03 14:26:03;;;;;;;2.30;0.60;;;19.80;95.30;;;;;;5033209;28;20372;-80
2022/10/03 14:28:44;;;;;;;1.67;0.57;;;19.60;95.50;;;;;;4970466;28;20085;-80
2022/10/03 14:31:33;;;;;;;2.67;0.85;;;19.30;96.10;;;;;;5044920;28;20384;-80
2022/10/03 14:34:18;;;;;;;1.83;0.57;;;19.30;96.60;;;;;;5052961;28;20044;-80
2022/10/03 14:36:43;;;;;;;2.78;1.35;;;19.20;97.10;;;;;;5046454;28;20041;-80
2022/10/03 14:39:44;;;;;;;2.25;0.73;;;19.20;97.50;;;;;;5051156;28;20479;-80
2022/10/03 14:42:57;;;;;;;4.50;0.88;;;19.20;97.20;;;;;;5030653;28;20395;-80
2022/10/03 14:45:28;;;;;;;1.02;0.30;;;19.10;97.10;;;;;;4975504;28;20035;-81
2022/10/03 14:47:59;;;;;;;0.93;0.40;;;19.10;97.80;;;;;;5023256;28;20041;-80
2022/10/03 14:50:28;;;;;;;1.98;0.60;;;19.00;97.90;;;;;;5049775;28;20360;-80